createdAt,value
2019-04-22T00:00:10.768Z,15.32
2019-04-22T00:02:43.523Z,15.39
2019-04-22T00:05:16.586Z,15.46
2019-04-22T00:08:06.823Z,15.28
2019-04-22T00:10:32.377Z,15.24
2019-04-22T00:13:00.062Z,15.18
2019-04-22T00:15:19.491Z,15.13
2019-04-22T00:18:03.743Z,15.09
2019-04-22T00:20:22.671Z,15.10
2019-04-22T00:22:51.878Z,15.00
2019-04-22T00:25:24.505Z,15.02
2019-04-22T00:27:51.089Z,14.97
2019-04-22T00:30:16.438Z,15.05
2019-04-22T00:32:42.118Z,14.95
2019-04-22T00:35:14.766Z,15.11
2019-04-22T00:37:43.854Z,15.03
2019-04-22T00:40:07.339Z,15.00
2019-04-22T00:42:39.166Z,15.06
2019-04-22T00:45:08.055Z,15.10
2019-04-22T00:47:34.947Z,15.05
2019-04-22T00:52:28.500Z,15.00
2019-04-22T00:54:59.517Z,14.98
2019-04-22T00:57:21.447Z,15.06
2019-04-22T00:59:55.409Z,15.00
2019-04-22T01:02:20.280Z,14.95
2019-04-22T01:04:48.904Z,14.86
2019-04-22T01:07:18.942Z,14.81
2019-04-22T01:09:49.356Z,14.82
2019-04-22T01:12:13.575Z,14.81
2019-04-22T01:14:41.352Z,14.86
2019-04-22T01:17:07.921Z,14.91
2019-04-22T01:19:43.866Z,14.83
2019-04-22T01:21:58.302Z,14.73
2019-04-22T01:24:31.081Z,14.74
2019-04-22T01:26:53.771Z,14.72
2019-04-22T01:29:16.144Z,14.68
2019-04-22T01:31:36.268Z,14.64
2019-04-22T01:34:16.195Z,14.58
2019-04-22T01:36:51.614Z,14.68
2019-04-22T01:39:23.212Z,14.64
2019-04-22T01:42:03.912Z,14.60
2019-04-22T01:46:50.845Z,14.50
2019-04-22T01:49:15.954Z,14.47
2019-04-22T01:51:54.291Z,14.32
2019-04-22T01:54:22.112Z,14.42
2019-04-22T01:56:44.965Z,14.35
2019-04-22T01:59:00.681Z,14.39
2019-04-22T02:01:41.628Z,14.23
2019-04-22T02:04:15.221Z,14.24
2019-04-22T02:06:35.093Z,14.20
2019-04-22T02:09:09.485Z,14.12
2019-04-22T02:11:37.296Z,14.19
2019-04-22T02:13:56.645Z,14.19
2019-04-22T02:16:32.335Z,14.06
2019-04-22T02:18:53.073Z,13.95
2019-04-22T02:21:15.274Z,13.95
2019-04-22T02:26:15.787Z,13.93
2019-04-22T02:28:42.727Z,13.87
2019-04-22T02:38:58.781Z,13.84
2019-04-22T02:48:53.354Z,13.84
2019-04-22T02:54:15.234Z,14.05
2019-04-22T02:58:44.946Z,13.96
2019-04-22T03:03:45.487Z,13.99
2019-04-22T03:06:05.326Z,14.00
2019-04-22T03:08:25.572Z,14.05
2019-04-22T03:10:56.507Z,14.03
2019-04-22T03:15:52.881Z,13.99
2019-04-22T03:18:19.562Z,14.01
2019-04-22T03:20:53.387Z,13.89
2019-04-22T03:23:31.774Z,13.79
2019-04-22T03:28:05.109Z,13.87
2019-04-22T03:36:58.102Z,13.87
2019-04-22T03:37:56.193Z,13.84
2019-04-22T03:43:13.656Z,13.71
2019-04-22T03:52:53.099Z,13.78
2019-04-22T04:02:54.205Z,13.99
2019-04-22T04:05:17.156Z,14.02
2019-04-22T04:12:42.095Z,14.04
2019-04-22T04:15:21.168Z,14.04
2019-04-22T04:25:10.024Z,14.20
2019-04-22T04:35:12.704Z,14.28
2019-04-22T04:37:32.151Z,14.26
2019-04-22T04:39:44.219Z,14.37
2019-04-22T04:42:32.938Z,14.41
2019-04-22T04:47:11.594Z,14.56
2019-04-22T04:49:36.684Z,14.58
2019-04-22T04:54:31.860Z,14.67
2019-04-22T04:57:14.601Z,14.71
2019-04-22T05:01:55.175Z,14.69
2019-04-22T05:04:26.398Z,14.71
2019-04-22T05:07:05.781Z,14.75
2019-04-22T05:11:54.057Z,14.67
2019-04-22T05:14:14.433Z,14.65
2019-04-22T05:16:44.637Z,14.68
2019-04-22T05:19:12.874Z,14.68
2019-04-22T05:21:36.331Z,14.56
2019-04-22T05:24:02.377Z,14.50
2019-04-22T05:26:30.972Z,14.39
2019-04-22T05:28:53.084Z,14.55
2019-04-22T05:31:24.372Z,14.48
2019-04-22T05:33:47.950Z,14.32
2019-04-22T05:36:25.990Z,14.52
2019-04-22T05:38:46.309Z,14.49
2019-04-22T05:43:40.825Z,14.48
2019-04-22T05:46:09.221Z,14.46
2019-04-22T05:48:41.523Z,14.37
2019-04-22T05:51:01.120Z,14.39
2019-04-22T05:53:37.206Z,14.69
2019-04-22T05:56:04.186Z,14.72
2019-04-22T05:58:32.925Z,14.74
2019-04-22T06:03:37.897Z,15.27
2019-04-22T06:06:07.825Z,15.42
2019-04-22T06:08:29.576Z,15.60
2019-04-22T06:11:04.316Z,15.82
2019-04-22T06:13:26.783Z,15.83
2019-04-22T06:15:52.920Z,16.05
2019-04-22T06:18:27.265Z,16.05
2019-04-22T06:21:09.019Z,16.18
2019-04-22T06:26:05.836Z,16.22
2019-04-22T06:28:28.836Z,16.21
2019-04-22T06:30:54.615Z,16.20
2019-04-22T06:33:20.216Z,16.26
2019-04-22T06:38:30.172Z,16.44
2019-04-22T06:43:08.827Z,16.59
2019-04-22T06:45:35.291Z,16.75
2019-04-22T06:48:17.903Z,16.67
2019-04-22T06:50:40.483Z,16.80
2019-04-22T06:53:02.971Z,16.84
2019-04-22T06:55:35.626Z,16.92
2019-04-22T06:58:00.375Z,16.88
2019-04-22T07:03:26.287Z,16.89
2019-04-22T07:05:25.223Z,16.83
2019-04-22T07:08:02.775Z,16.87
2019-04-22T07:10:28.631Z,16.99
2019-04-22T07:12:48.727Z,16.94
2019-04-22T07:15:31.687Z,16.95
2019-04-22T07:20:10.981Z,16.98
2019-04-22T07:22:51.255Z,17.12
2019-04-22T07:25:06.235Z,17.24
2019-04-22T07:27:30.123Z,17.31
2019-04-22T07:30:09.474Z,17.34
2019-04-22T07:32:54.954Z,17.13
2019-04-22T07:35:02.024Z,17.56
2019-04-22T07:37:39.104Z,17.61
2019-04-22T07:39:50.128Z,17.34
2019-04-22T07:42:28.218Z,17.77
2019-04-22T07:44:54.788Z,17.73
2019-04-22T07:47:25.750Z,17.80
2019-04-22T07:52:18.811Z,17.40
2019-04-22T07:54:46.722Z,17.67
2019-04-22T07:57:22.739Z,17.75
2019-04-22T07:59:40.355Z,17.76
2019-04-22T08:04:56.019Z,17.21
2019-04-22T08:07:05.450Z,17.40
2019-04-22T08:09:39.775Z,17.37
2019-04-22T08:14:28.309Z,17.98
2019-04-22T08:17:01.566Z,17.71
2019-04-22T08:19:33.145Z,17.63
2019-04-22T08:21:52.130Z,17.80
2019-04-22T08:24:35.713Z,17.85
2019-04-22T08:26:47.643Z,18.01
2019-04-22T08:29:20.193Z,18.31
2019-04-22T08:31:48.695Z,18.06
2019-04-22T08:34:14.188Z,18.23
2019-04-22T08:36:55.436Z,18.69
2019-04-22T08:39:13.651Z,18.33
2019-04-22T08:41:43.823Z,18.64
2019-04-22T08:44:07.667Z,18.41
2019-04-22T08:46:53.948Z,18.62
2019-04-22T08:48:59.005Z,18.62
2019-04-22T08:51:31.022Z,18.52
2019-04-22T08:54:13.703Z,18.58
2019-04-22T08:56:32.434Z,18.56
2019-04-22T08:59:02.046Z,18.49
2019-04-22T09:01:23.397Z,18.36
2019-04-22T09:03:52.475Z,18.03
2019-04-22T09:06:36.869Z,18.73
2019-04-22T09:08:50.408Z,18.42
2019-04-22T09:11:20.064Z,18.20
2019-04-22T09:13:43.337Z,18.01
2019-04-22T09:16:14.529Z,18.17
2019-04-22T09:18:42.219Z,18.48
2019-04-22T09:21:15.120Z,17.96
2019-04-22T09:23:37.123Z,18.56
2019-04-22T09:26:03.841Z,18.74
2019-04-22T09:28:33.246Z,19.12
2019-04-22T09:31:02.036Z,19.07
2019-04-22T09:33:27.637Z,18.88
2019-04-22T09:38:32.847Z,19.29
2019-04-22T09:41:05.416Z,19.38
2019-04-22T09:43:17.034Z,19.41
2019-04-22T09:45:47.712Z,19.04
2019-04-22T09:48:18.804Z,19.09
2019-04-22T09:50:43.182Z,19.24
2019-04-22T09:53:08.095Z,19.26
2019-04-22T09:55:34.558Z,19.20
2019-04-22T09:58:02.788Z,19.17
2019-04-22T10:00:39.504Z,19.18
2019-04-22T10:03:10.030Z,19.35
2019-04-22T10:05:32.871Z,19.20
2019-04-22T10:08:14.554Z,19.29
2019-04-22T10:10:26.846Z,19.27
2019-04-22T10:12:57.805Z,19.38
2019-04-22T10:15:26.749Z,19.26
2019-04-22T10:17:57.993Z,19.38
2019-04-22T10:20:28.178Z,19.43
2019-04-22T10:22:53.216Z,19.45
2019-04-22T10:25:16.334Z,19.47
2019-04-22T10:27:51.389Z,19.56
2019-04-22T10:30:32.148Z,19.67
2019-04-22T10:32:43.027Z,19.70
2019-04-22T10:34:59.103Z,19.74
2019-04-22T10:37:21.816Z,19.62
2019-04-22T10:39:56.221Z,19.54
2019-04-22T10:42:17.405Z,19.69
2019-04-22T10:44:45.227Z,19.79
2019-04-22T10:47:11.918Z,19.91
2019-04-22T10:49:38.434Z,19.91
2019-04-22T10:52:04.645Z,19.95
2019-04-22T10:54:31.485Z,20.02
2019-04-22T10:56:59.027Z,19.97
2019-04-22T10:59:24.952Z,20.12
2019-04-22T11:01:50.951Z,20.29
2019-04-22T11:04:17.550Z,20.57
2019-04-22T11:06:52.154Z,20.32
2019-04-22T11:09:12.488Z,20.47
2019-04-22T11:11:48.768Z,20.39
2019-04-22T11:14:07.476Z,20.22
2019-04-22T11:16:35.177Z,20.26
2019-04-22T11:19:01.478Z,20.50
2019-04-22T11:21:27.557Z,20.52
2019-04-22T11:23:54.571Z,20.47
2019-04-22T11:26:21.883Z,20.51
2019-04-22T11:28:49.328Z,20.68
2019-04-22T11:31:16.542Z,20.56
2019-04-22T11:33:42.874Z,20.57
2019-04-22T11:36:10.123Z,20.57
2019-04-22T11:38:40.381Z,20.38
2019-04-22T11:41:05.423Z,20.45
2019-04-22T11:43:32.430Z,20.68
2019-04-22T11:45:59.568Z,20.77
2019-04-22T11:48:27.034Z,20.84
2019-04-22T11:50:53.739Z,20.67
2019-04-22T11:53:20.693Z,20.51
2019-04-22T11:55:46.837Z,20.62
2019-04-22T11:58:12.957Z,20.69
2019-04-22T12:00:40.934Z,20.95
2019-04-22T12:03:07.465Z,20.72
2019-04-22T12:05:34.299Z,20.97
2019-04-22T12:08:00.627Z,20.75
2019-04-22T12:10:35.702Z,20.84
2019-04-22T12:12:57.741Z,21.36
2019-04-22T12:15:24.689Z,21.59
2019-04-22T12:17:51.031Z,21.85
2019-04-22T12:20:18.396Z,22.11
2019-04-22T12:22:45.333Z,22.06
2019-04-22T12:25:17.930Z,21.97
2019-04-22T12:27:41.255Z,22.25
2019-04-22T12:30:12.345Z,22.07
2019-04-22T12:32:39.021Z,21.88
2019-04-22T12:35:07.198Z,22.24
2019-04-22T12:37:40.643Z,22.24
2019-04-22T12:40:04.271Z,21.92
2019-04-22T12:42:31.269Z,23.15
2019-04-22T12:44:58.327Z,22.66
2019-04-22T12:47:24.472Z,22.53
2019-04-22T12:49:59.802Z,23.22
2019-04-22T12:52:26.648Z,22.97
2019-04-22T12:54:46.929Z,23.16
2019-04-22T12:57:14.638Z,23.85
2019-04-22T12:59:41.802Z,23.96
2019-04-22T13:02:09.084Z,23.10
2019-04-22T13:04:36.251Z,23.81
2019-04-22T13:07:03.818Z,24.26
2019-04-22T13:09:29.823Z,24.05
2019-04-22T13:11:57.169Z,23.52
2019-04-22T13:14:23.488Z,24.26
2019-04-22T13:16:49.347Z,24.40
2019-04-22T13:19:18.649Z,24.51
2019-04-22T13:21:44.740Z,25.56
2019-04-22T13:24:11.021Z,25.60
2019-04-22T13:26:38.113Z,26.46
2019-04-22T13:29:05.207Z,26.07
2019-04-22T13:31:32.871Z,24.30
2019-04-22T13:34:01.682Z,24.92
2019-04-22T13:36:28.296Z,25.49
2019-04-22T13:38:55.237Z,25.02
2019-04-22T13:41:31.792Z,24.97
2019-04-22T13:43:49.320Z,25.63
2019-04-22T13:46:16.902Z,28.26
2019-04-22T13:49:08.716Z,28.89
2019-04-22T13:52:15.377Z,29.54
2019-04-22T13:56:23.793Z,31.97
2019-04-22T13:58:48.448Z,30.22
2019-04-22T14:01:05.180Z,27.92
2019-04-22T14:03:42.837Z,28.88
2019-04-22T14:06:09.135Z,29.95
2019-04-22T14:08:35.329Z,29.62
2019-04-22T14:11:14.903Z,28.46
2019-04-22T14:13:30.066Z,27.76
2019-04-22T14:15:56.993Z,25.54
2019-04-22T14:18:23.230Z,25.56
2019-04-22T14:20:49.286Z,27.29
2019-04-22T14:23:15.952Z,28.18
2019-04-22T14:25:43.094Z,27.85
2019-04-22T14:30:37.177Z,29.02
2019-04-22T14:33:04.997Z,28.89
2019-04-22T14:35:31.350Z,29.03
2019-04-22T14:37:58.312Z,28.62
2019-04-22T14:40:26.567Z,30.40
2019-04-22T14:43:17.618Z,31.55
2019-04-22T14:44:24.478Z,28.53
2019-04-22T14:45:58.712Z,33.26
2019-04-22T14:48:22.583Z,31.84
2019-04-22T14:50:42.240Z,29.89
2019-04-22T14:53:11.230Z,27.77
2019-04-22T14:55:22.831Z,28.08
2019-04-22T14:57:44.406Z,27.23
2019-04-22T15:00:15.853Z,26.14
2019-04-22T15:02:41.939Z,25.42
2019-04-22T15:05:08.214Z,24.87
2019-04-22T15:07:35.096Z,24.49
2019-04-22T15:10:01.985Z,24.71
2019-04-22T15:12:36.701Z,24.31
2019-04-22T15:14:57.573Z,23.55
2019-04-22T15:17:42.900Z,23.42
2019-04-22T15:20:11.938Z,23.42
2019-04-22T15:22:38.876Z,22.95
2019-04-22T15:25:05.850Z,22.92
2019-04-22T15:27:33.069Z,22.82
2019-04-22T15:29:59.296Z,22.76
2019-04-22T15:32:25.380Z,22.25
2019-04-22T15:34:51.317Z,22.28
2019-04-22T15:37:18.086Z,22.44
2019-04-22T15:39:45.665Z,22.31
2019-04-22T15:42:19.840Z,21.92
2019-04-22T15:44:39.968Z,21.21
2019-04-22T15:47:06.995Z,21.60
2019-04-22T15:49:34.029Z,21.05
2019-04-22T15:52:02.170Z,21.34
2019-04-22T15:54:28.073Z,21.24
2019-04-22T15:56:54.876Z,21.16
2019-04-22T15:59:41.679Z,21.36
2019-04-22T16:01:50.463Z,21.07
2019-04-22T16:04:16.983Z,21.20
2019-04-22T16:06:43.276Z,20.90
2019-04-22T16:09:11.112Z,20.77
2019-04-22T16:11:38.050Z,20.47
2019-04-22T16:14:04.346Z,20.76
2019-04-22T16:16:30.555Z,20.56
2019-04-22T16:18:56.482Z,20.51
2019-04-22T16:21:32.669Z,20.62
2019-04-22T16:24:04.532Z,20.63
2019-04-22T16:26:38.426Z,20.53
2019-04-22T16:29:05.311Z,20.62
2019-04-22T16:31:35.674Z,20.43
2019-04-22T16:34:02.652Z,20.14
2019-04-22T16:36:29.192Z,20.34
2019-04-22T16:38:57.009Z,20.24
2019-04-22T16:41:24.552Z,20.08
2019-04-22T16:43:50.842Z,20.10
2019-04-22T16:46:16.884Z,20.10
2019-04-22T16:48:43.394Z,19.65
2019-04-22T16:51:09.899Z,19.69
2019-04-22T16:53:37.047Z,19.73
2019-04-22T16:56:04.630Z,19.64
2019-04-22T16:58:30.864Z,19.62
2019-04-22T17:00:58.633Z,19.68
2019-04-22T17:03:26.853Z,19.45
2019-04-22T17:06:10.028Z,19.38
2019-04-22T17:08:37.005Z,19.10
2019-04-22T17:11:04.175Z,19.42
2019-04-22T17:13:32.807Z,19.42
2019-04-22T17:16:00.861Z,19.34
2019-04-22T17:18:27.359Z,19.19
2019-04-22T17:20:54.888Z,19.09
2019-04-22T17:23:20.959Z,19.03
2019-04-22T17:25:48.217Z,19.08
2019-04-22T17:28:15.398Z,18.79
2019-04-22T17:30:41.624Z,18.83
2019-04-22T17:33:08.442Z,18.99
2019-04-22T17:35:36.044Z,18.83
2019-04-22T17:38:12.569Z,18.87
2019-04-22T17:40:49.461Z,18.73
2019-04-22T17:43:34.272Z,18.72
2019-04-22T17:45:57.270Z,18.68
2019-04-22T17:48:30.455Z,18.62
2019-04-22T17:51:10.600Z,18.72
2019-04-22T17:53:34.807Z,18.48
2019-04-22T17:56:02.361Z,18.30
2019-04-22T17:58:29.029Z,18.46
2019-04-22T18:00:50.714Z,18.35
2019-04-22T18:03:13.105Z,18.39
2019-04-22T18:05:38.431Z,18.21
2019-04-22T18:08:17.722Z,18.11
2019-04-22T18:10:44.048Z,18.07
2019-04-22T18:13:23.825Z,17.82
2019-04-22T18:15:43.534Z,17.99
2019-04-22T18:18:12.514Z,17.83
2019-04-22T18:20:29.302Z,17.71
2019-04-22T18:22:54.643Z,17.73
2019-04-22T18:25:29.572Z,17.29
2019-04-22T18:28:10.462Z,17.57
2019-04-22T18:30:20.362Z,17.56
2019-04-22T18:32:57.050Z,17.55
2019-04-22T18:35:26.545Z,17.57
2019-04-22T18:37:53.660Z,17.56
2019-04-22T18:40:24.039Z,17.39
2019-04-22T18:42:58.401Z,17.32
2019-04-22T18:47:48.815Z,17.28
2019-04-22T18:50:26.531Z,17.34
2019-04-22T18:52:59.234Z,17.42
2019-04-22T18:55:20.733Z,17.18
2019-04-22T18:58:02.794Z,17.25
2019-04-22T19:00:23.321Z,17.25
2019-04-22T19:02:55.831Z,17.24
2019-04-22T19:05:34.704Z,17.37
2019-04-22T19:08:12.657Z,17.25
2019-04-22T19:10:53.255Z,17.18
2019-04-22T19:13:34.804Z,17.20
2019-04-22T19:15:39.903Z,17.07
2019-04-22T19:18:10.545Z,17.06
2019-04-22T19:20:38.080Z,17.22
2019-04-22T19:23:04.179Z,17.15
2019-04-22T19:25:24.075Z,17.08
2019-04-22T19:28:01.447Z,17.02
2019-04-22T19:30:30.048Z,17.05
2019-04-22T19:32:58.600Z,17.06
2019-04-22T19:35:25.723Z,16.95
2019-04-22T19:37:50.811Z,16.99
2019-04-22T19:40:24.078Z,17.06
2019-04-22T19:42:57.484Z,17.00
2019-04-22T19:45:15.821Z,16.96
2019-04-22T19:47:53.533Z,17.03
2019-04-22T19:50:16.392Z,17.01
2019-04-22T19:52:39.814Z,16.95
2019-04-22T19:55:12.586Z,16.94
2019-04-22T19:57:33.998Z,17.03
2019-04-22T20:00:05.402Z,17.00
2019-04-22T20:02:41.124Z,17.03
2019-04-22T20:05:31.081Z,17.07
2019-04-22T20:07:46.958Z,16.99
2019-04-22T20:10:20.661Z,17.03
2019-04-22T20:12:49.316Z,16.98
2019-04-22T20:15:15.618Z,16.98
2019-04-22T20:18:07.567Z,17.00
2019-04-22T20:20:19.671Z,17.04
2019-04-22T20:22:37.504Z,17.12
2019-04-22T20:24:58.368Z,17.03
2019-04-22T20:27:36.404Z,17.11
2019-04-22T20:30:13.735Z,17.14
2019-04-22T20:32:32.663Z,17.03
2019-04-22T20:35:09.451Z,17.06
2019-04-22T20:37:37.065Z,17.14
2019-04-22T20:40:08.583Z,17.12
2019-04-22T20:42:45.032Z,17.15
2019-04-22T20:45:04.010Z,17.21
2019-04-22T20:47:29.312Z,17.17
2019-04-22T20:50:02.226Z,17.17
2019-04-22T20:52:34.226Z,17.22
2019-04-22T20:54:55.913Z,17.20
2019-04-22T20:57:31.957Z,17.17
2019-04-22T20:59:52.247Z,17.22
2019-04-22T21:02:17.955Z,17.19
2019-04-22T21:04:41.462Z,17.15
2019-04-22T21:07:13.805Z,17.22
2019-04-22T21:09:48.767Z,17.22
2019-04-22T21:12:13.944Z,17.22
2019-04-22T21:14:51.422Z,17.29
2019-04-22T21:17:13.622Z,17.29
2019-04-22T21:19:47.626Z,17.29
2019-04-22T21:22:07.966Z,17.36
2019-04-22T21:24:34.973Z,17.35
2019-04-22T21:27:10.252Z,17.34
2019-04-22T21:29:26.594Z,17.37
2019-04-22T21:32:06.223Z,17.39
2019-04-22T21:34:31.713Z,17.35
2019-04-22T21:37:02.596Z,17.38
2019-04-22T21:39:26.347Z,17.36
2019-04-22T21:41:54.405Z,17.34
2019-04-22T21:44:29.688Z,17.32
2019-04-22T21:46:57.703Z,17.32
2019-04-22T21:49:25.422Z,17.37
2019-04-22T21:51:56.811Z,17.42
2019-04-22T21:54:22.424Z,17.44
2019-04-22T21:57:07.435Z,17.45
2019-04-22T21:59:29.296Z,17.41
2019-04-22T22:01:56.877Z,17.40
2019-04-22T22:04:24.525Z,17.36
2019-04-22T22:06:41.238Z,17.38
2019-04-22T22:09:20.489Z,17.38
2019-04-22T22:11:49.145Z,17.36
2019-04-22T22:14:16.969Z,17.37
2019-04-22T22:16:38.416Z,17.39
2019-04-22T22:19:11.121Z,17.46
2019-04-22T22:21:49.657Z,17.48
2019-04-22T22:24:11.559Z,17.46
2019-04-22T22:26:39.925Z,17.49
2019-04-22T22:29:15.664Z,17.52
2019-04-22T22:31:36.767Z,17.42
2019-04-22T22:34:04.127Z,17.38
2019-04-22T22:36:26.752Z,17.28
2019-04-22T22:38:48.364Z,17.17
2019-04-22T22:41:03.705Z,16.99
2019-04-22T22:43:36.082Z,16.89
2019-04-22T22:46:12.054Z,16.83
2019-04-22T22:48:51.392Z,16.73
2019-04-22T22:51:15.642Z,16.52
2019-04-22T22:53:44.415Z,16.51
2019-04-22T22:56:13.680Z,16.39
2019-04-22T22:58:42.534Z,16.41
2019-04-22T23:01:06.351Z,16.24
2019-04-22T23:06:03.235Z,15.90
2019-04-22T23:08:31.956Z,15.79
2019-04-22T23:15:44.368Z,15.70
2019-04-22T23:18:01.675Z,15.57
2019-04-22T23:20:35.404Z,15.31
2019-04-22T23:23:23.909Z,15.44
2019-04-22T23:25:54.788Z,15.23
2019-04-22T23:28:16.117Z,15.25
2019-04-22T23:30:57.106Z,15.11
2019-04-22T23:33:37.469Z,15.22
2019-04-22T23:36:10.102Z,15.12
2019-04-22T23:38:47.654Z,15.06
2019-04-22T23:41:42.717Z,15.06
2019-04-22T23:44:06.993Z,15.04
2019-04-22T23:46:25.434Z,14.98
2019-04-22T23:48:51.558Z,14.96
2019-04-22T23:51:19.668Z,14.92
2019-04-22T23:54:05.832Z,14.81
2019-04-22T23:56:15.206Z,14.71
2019-04-22T23:59:02.660Z,14.64
